sensor_id;sensor_type;location;lat;lon;timestamp;pressure;altitude;pressure_sealevel;temperature;humidity
70198;BME280;57582;-34.876;138.628;2024-02-04T00:02:45;99579;;;34.54;20.01
70198;BME280;57582;-34.876;138.628;2024-02-04T00:05:45;99568;;;34.63;19.27
70198;BME280;57582;-34.876;138.628;2024-02-04T00:08:45;99573;;;34.71;19.76
70198;BME280;57582;-34.876;138.628;2024-02-04T00:11:46;99574;;;34.96;20.04
70198;BME280;57582;-34.876;138.628;2024-02-04T00:14:45;99567;;;35.02;19.63
70198;BME280;57582;-34.876;138.628;2024-02-04T00:17:45;99563;;;35.15;19.44
70198;BME280;57582;-34.876;138.628;2024-02-04T00:20:45;99556;;;35.32;18.87
70198;BME280;57582;-34.876;138.628;2024-02-04T00:23:46;99553;;;35.49;19.01
70198;BME280;57582;-34.876;138.628;2024-02-04T00:26:45;99549;;;35.69;18.40
70198;BME280;57582;-34.876;138.628;2024-02-04T00:29:45;99554;;;35.86;18.34
70198;BME280;57582;-34.876;138.628;2024-02-04T00:32:45;99548;;;36.12;18.71
70198;BME280;57582;-34.876;138.628;2024-02-04T00:35:46;99538;;;36.32;18.03
70198;BME280;57582;-34.876;138.628;2024-02-04T00:38:45;99536;;;36.53;18.13
70198;BME280;57582;-34.876;138.628;2024-02-04T00:41:45;99536;;;36.76;17.66
70198;BME280;57582;-34.876;138.628;2024-02-04T00:44:45;99538;;;36.94;17.86
70198;BME280;57582;-34.876;138.628;2024-02-04T00:47:47;99537;;;37.18;17.75
70198;BME280;57582;-34.876;138.628;2024-02-04T00:50:45;99520;;;37.18;17.49
70198;BME280;57582;-34.876;138.628;2024-02-04T00:53:46;99511;;;37.34;18.86
70198;BME280;57582;-34.876;138.628;2024-02-04T00:56:45;99512;;;37.38;16.88
70198;BME280;57582;-34.876;138.628;2024-02-04T00:59:46;99509;;;37.36;16.74
70198;BME280;57582;-34.876;138.628;2024-02-04T01:02:45;99506;;;37.41;16.28
70198;BME280;57582;-34.876;138.628;2024-02-04T01:05:45;99512;;;37.40;16.64
70198;BME280;57582;-34.876;138.628;2024-02-04T01:08:45;99515;;;37.53;16.79
70198;BME280;57582;-34.876;138.628;2024-02-04T01:11:49;99515;;;37.69;16.29
70198;BME280;57582;-34.876;138.628;2024-02-04T01:14:45;99505;;;37.75;17.24
70198;BME280;57582;-34.876;138.628;2024-02-04T01:17:46;99495;;;37.69;18.17
70198;BME280;57582;-34.876;138.628;2024-02-04T01:20:45;99492;;;37.78;17.14
70198;BME280;57582;-34.876;138.628;2024-02-04T01:23:46;99491;;;37.82;17.13
70198;BME280;57582;-34.876;138.628;2024-02-04T01:26:45;99479;;;37.94;17.20
70198;BME280;57582;-34.876;138.628;2024-02-04T01:29:45;99484;;;38.11;17.05
70198;BME280;57582;-34.876;138.628;2024-02-04T01:32:45;99474;;;38.12;16.59
70198;BME280;57582;-34.876;138.628;2024-02-04T01:35:46;99471;;;37.98;16.40
70198;BME280;57582;-34.876;138.628;2024-02-04T01:38:45;99467;;;37.86;17.00
70198;BME280;57582;-34.876;138.628;2024-02-04T01:41:45;99461;;;37.92;16.85
70198;BME280;57582;-34.876;138.628;2024-02-04T01:44:45;99454;;;37.96;17.41
70198;BME280;57582;-34.876;138.628;2024-02-04T01:47:46;99456;;;38.11;17.12
70198;BME280;57582;-34.876;138.628;2024-02-04T01:50:45;99449;;;38.05;16.78
70198;BME280;57582;-34.876;138.628;2024-02-04T01:53:46;99448;;;38.01;16.92
70198;BME280;57582;-34.876;138.628;2024-02-04T01:56:47;99447;;;38.27;17.16
70198;BME280;57582;-34.876;138.628;2024-02-04T01:59:46;99442;;;38.31;16.61
70198;BME280;57582;-34.876;138.628;2024-02-04T02:02:46;99436;;;38.41;16.85
70198;BME280;57582;-34.876;138.628;2024-02-04T02:05:45;99440;;;38.68;15.67
70198;BME280;57582;-34.876;138.628;2024-02-04T02:08:45;99443;;;38.76;15.87
70198;BME280;57582;-34.876;138.628;2024-02-04T02:11:47;99433;;;38.81;15.18
70198;BME280;57582;-34.876;138.628;2024-02-04T02:14:46;99438;;;38.66;15.00
70198;BME280;57582;-34.876;138.628;2024-02-04T02:26:46;99406;;;38.71;14.91
70198;BME280;57582;-34.876;138.628;2024-02-04T02:29:45;99410;;;38.84;15.53
70198;BME280;57582;-34.876;138.628;2024-02-04T02:32:46;99402;;;38.96;15.35
70198;BME280;57582;-34.876;138.628;2024-02-04T02:35:46;99398;;;39.14;14.99
70198;BME280;57582;-34.876;138.628;2024-02-04T02:38:51;99398;;;39.19;15.08
70198;BME280;57582;-34.876;138.628;2024-02-04T02:41:46;99395;;;39.10;14.65
70198;BME280;57582;-34.876;138.628;2024-02-04T02:44:46;99394;;;38.99;14.95
70198;BME280;57582;-34.876;138.628;2024-02-04T02:47:46;99388;;;38.95;15.17
70198;BME280;57582;-34.876;138.628;2024-02-04T02:50:47;99388;;;39.13;15.90
70198;BME280;57582;-34.876;138.628;2024-02-04T02:53:46;99372;;;39.36;14.36
70198;BME280;57582;-34.876;138.628;2024-02-04T02:56:46;99370;;;39.44;15.24
70198;BME280;57582;-34.876;138.628;2024-02-04T02:59:46;99371;;;39.51;14.71
70198;BME280;57582;-34.876;138.628;2024-02-04T03:02:46;99363;;;39.51;14.63
70198;BME280;57582;-34.876;138.628;2024-02-04T03:05:46;99364;;;39.27;14.34
70198;BME280;57582;-34.876;138.628;2024-02-04T03:08:46;99359;;;39.34;15.34
70198;BME280;57582;-34.876;138.628;2024-02-04T03:11:47;99355;;;39.48;15.35
70198;BME280;57582;-34.876;138.628;2024-02-04T03:14:46;99352;;;39.46;14.71
70198;BME280;57582;-34.876;138.628;2024-02-04T03:17:46;99351;;;39.47;14.82
70198;BME280;57582;-34.876;138.628;2024-02-04T03:20:46;99346;;;39.37;13.94
70198;BME280;57582;-34.876;138.628;2024-02-04T03:23:46;99339;;;39.21;14.48
70198;BME280;57582;-34.876;138.628;2024-02-04T03:26:46;99334;;;39.38;14.92
70198;BME280;57582;-34.876;138.628;2024-02-04T03:29:46;99332;;;39.53;14.59
70198;BME280;57582;-34.876;138.628;2024-02-04T03:32:46;99341;;;39.58;13.96
70198;BME280;57582;-34.876;138.628;2024-02-04T03:35:47;99328;;;39.79;13.83
70198;BME280;57582;-34.876;138.628;2024-02-04T03:38:46;99321;;;39.94;14.00
70198;BME280;57582;-34.876;138.628;2024-02-04T03:41:46;99318;;;39.98;13.82
70198;BME280;57582;-34.876;138.628;2024-02-04T03:44:46;99320;;;40.21;13.82
70198;BME280;57582;-34.876;138.628;2024-02-04T03:47:49;99311;;;40.29;13.33
70198;BME280;57582;-34.876;138.628;2024-02-04T03:50:46;99307;;;40.20;13.89
70198;BME280;57582;-34.876;138.628;2024-02-04T03:53:46;99296;;;40.38;13.42
70198;BME280;57582;-34.876;138.628;2024-02-04T03:56:46;99306;;;40.44;12.97
70198;BME280;57582;-34.876;138.628;2024-02-04T03:59:47;99290;;;40.31;12.98
70198;BME280;57582;-34.876;138.628;2024-02-04T04:02:46;99298;;;40.09;12.83
70198;BME280;57582;-34.876;138.628;2024-02-04T04:05:46;99290;;;40.16;13.04
70198;BME280;57582;-34.876;138.628;2024-02-04T04:08:46;99287;;;40.36;13.20
70198;BME280;57582;-34.876;138.628;2024-02-04T04:11:46;99287;;;40.57;13.56
70198;BME280;57582;-34.876;138.628;2024-02-04T04:14:46;99281;;;40.61;13.65
70198;BME280;57582;-34.876;138.628;2024-02-04T04:17:46;99277;;;40.67;13.11
70198;BME280;57582;-34.876;138.628;2024-02-04T04:20:46;99279;;;40.83;14.37
70198;BME280;57582;-34.876;138.628;2024-02-04T04:23:46;99269;;;40.86;13.86
70198;BME280;57582;-34.876;138.628;2024-02-04T04:26:46;99270;;;40.53;13.25
70198;BME280;57582;-34.876;138.628;2024-02-04T04:29:46;99270;;;40.62;13.10
70198;BME280;57582;-34.876;138.628;2024-02-04T04:32:46;99258;;;40.60;12.79
70198;BME280;57582;-34.876;138.628;2024-02-04T04:35:48;99259;;;40.73;13.24
70198;BME280;57582;-34.876;138.628;2024-02-04T04:38:46;99250;;;40.86;12.77
70198;BME280;57582;-34.876;138.628;2024-02-04T04:41:46;99251;;;40.95;13.29
70198;BME280;57582;-34.876;138.628;2024-02-04T04:44:46;99249;;;41.00;12.90
70198;BME280;57582;-34.876;138.628;2024-02-04T04:47:46;99244;;;40.86;14.73
70198;BME280;57582;-34.876;138.628;2024-02-04T04:50:46;99242;;;40.69;15.13
70198;BME280;57582;-34.876;138.628;2024-02-04T04:53:46;99246;;;40.59;14.70
70198;BME280;57582;-34.876;138.628;2024-02-04T04:56:46;99248;;;40.54;15.09
70198;BME280;57582;-34.876;138.628;2024-02-04T04:59:48;99258;;;40.35;15.72
70198;BME280;57582;-34.876;138.628;2024-02-04T05:02:46;99255;;;39.98;16.62
70198;BME280;57582;-34.876;138.628;2024-02-04T05:05:46;99256;;;39.78;16.66
70198;BME280;57582;-34.876;138.628;2024-02-04T05:08:46;99259;;;39.67;16.94
70198;BME280;57582;-34.876;138.628;2024-02-04T05:11:46;99254;;;39.52;17.87
70198;BME280;57582;-34.876;138.628;2024-02-04T05:14:46;99253;;;39.48;18.28
70198;BME280;57582;-34.876;138.628;2024-02-04T05:17:46;99259;;;39.41;18.26
70198;BME280;57582;-34.876;138.628;2024-02-04T05:20:46;99258;;;39.42;18.74
70198;BME280;57582;-34.876;138.628;2024-02-04T05:23:48;99260;;;39.17;19.60
70198;BME280;57582;-34.876;138.628;2024-02-04T05:26:46;99256;;;38.97;20.17
70198;BME280;57582;-34.876;138.628;2024-02-04T05:29:46;99258;;;38.84;20.20
70198;BME280;57582;-34.876;138.628;2024-02-04T05:32:46;99256;;;38.57;20.80
70198;BME280;57582;-34.876;138.628;2024-02-04T05:35:48;99251;;;38.42;21.57
70198;BME280;57582;-34.876;138.628;2024-02-04T05:38:46;99262;;;38.27;22.05
70198;BME280;57582;-34.876;138.628;2024-02-04T05:41:46;99258;;;38.00;21.82
70198;BME280;57582;-34.876;138.628;2024-02-04T05:44:46;99252;;;37.98;22.60
70198;BME280;57582;-34.876;138.628;2024-02-04T05:47:47;99252;;;37.99;22.60
70198;BME280;57582;-34.876;138.628;2024-02-04T05:50:46;99250;;;37.95;22.28
70198;BME280;57582;-34.876;138.628;2024-02-04T05:53:46;99246;;;37.76;21.93
70198;BME280;57582;-34.876;138.628;2024-02-04T05:56:46;99244;;;37.73;22.06
70198;BME280;57582;-34.876;138.628;2024-02-04T05:59:49;99235;;;37.73;22.55
70198;BME280;57582;-34.876;138.628;2024-02-04T06:02:46;99234;;;37.81;22.64
70198;BME280;57582;-34.876;138.628;2024-02-04T06:05:46;99244;;;37.89;22.29
70198;BME280;57582;-34.876;138.628;2024-02-04T06:08:46;99237;;;37.86;22.91
70198;BME280;57582;-34.876;138.628;2024-02-04T06:11:46;99238;;;37.85;22.10
70198;BME280;57582;-34.876;138.628;2024-02-04T06:14:46;99234;;;37.74;22.16
70198;BME280;57582;-34.876;138.628;2024-02-04T06:17:46;99241;;;37.61;20.96
70198;BME280;57582;-34.876;138.628;2024-02-04T06:20:46;99241;;;37.43;20.77
70198;BME280;57582;-34.876;138.628;2024-02-04T06:23:48;99241;;;37.35;20.87
70198;BME280;57582;-34.876;138.628;2024-02-04T06:26:46;99241;;;37.19;21.19
70198;BME280;57582;-34.876;138.628;2024-02-04T06:29:46;99242;;;37.16;21.07
70198;BME280;57582;-34.876;138.628;2024-02-04T06:32:47;99253;;;37.00;20.64
70198;BME280;57582;-34.876;138.628;2024-02-04T06:35:47;99243;;;37.03;20.44
70198;BME280;57582;-34.876;138.628;2024-02-04T06:38:46;99253;;;37.04;19.99
70198;BME280;57582;-34.876;138.628;2024-02-04T06:41:46;99248;;;37.06;19.57
70198;BME280;57582;-34.876;138.628;2024-02-04T06:44:46;99245;;;37.02;19.28
70198;BME280;57582;-34.876;138.628;2024-02-04T06:47:46;99244;;;36.86;18.75
70198;BME280;57582;-34.876;138.628;2024-02-04T06:50:46;99247;;;36.81;18.75
70198;BME280;57582;-34.876;138.628;2024-02-04T06:53:46;99244;;;36.81;18.50
70198;BME280;57582;-34.876;138.628;2024-02-04T06:56:46;99236;;;36.88;18.48
70198;BME280;57582;-34.876;138.628;2024-02-04T06:59:47;99255;;;36.86;18.66
70198;BME280;57582;-34.876;138.628;2024-02-04T07:02:46;99255;;;36.88;18.37
70198;BME280;57582;-34.876;138.628;2024-02-04T07:05:46;99258;;;36.88;18.98
70198;BME280;57582;-34.876;138.628;2024-02-04T07:08:46;99256;;;36.81;19.66
70198;BME280;57582;-34.876;138.628;2024-02-04T07:11:47;99256;;;36.80;20.36
70198;BME280;57582;-34.876;138.628;2024-02-04T07:14:46;99253;;;36.85;20.53
70198;BME280;57582;-34.876;138.628;2024-02-04T07:17:46;99252;;;36.91;19.25
70198;BME280;57582;-34.876;138.628;2024-02-04T07:20:46;99259;;;36.99;19.08
70198;BME280;57582;-34.876;138.628;2024-02-04T07:23:49;99261;;;37.12;19.25
70198;BME280;57582;-34.876;138.628;2024-02-04T07:26:46;99258;;;37.23;18.36
70198;BME280;57582;-34.876;138.628;2024-02-04T07:29:46;99264;;;37.19;18.41
70198;BME280;57582;-34.876;138.628;2024-02-04T07:32:46;99267;;;37.28;18.08
70198;BME280;57582;-34.876;138.628;2024-02-04T07:35:47;99265;;;37.29;18.23
70198;BME280;57582;-34.876;138.628;2024-02-04T07:38:46;99259;;;37.34;18.81
70198;BME280;57582;-34.876;138.628;2024-02-04T07:41:46;99265;;;37.46;19.46
70198;BME280;57582;-34.876;138.628;2024-02-04T07:44:46;99250;;;37.47;19.48
70198;BME280;57582;-34.876;138.628;2024-02-04T07:47:49;99249;;;37.42;19.00
70198;BME280;57582;-34.876;138.628;2024-02-04T07:50:46;99248;;;37.44;19.00
70198;BME280;57582;-34.876;138.628;2024-02-04T07:53:46;99255;;;37.35;18.87
70198;BME280;57582;-34.876;138.628;2024-02-04T07:56:46;99253;;;37.37;18.89
70198;BME280;57582;-34.876;138.628;2024-02-04T07:59:49;99258;;;37.26;18.77
70198;BME280;57582;-34.876;138.628;2024-02-04T08:02:46;99265;;;37.16;18.56
70198;BME280;57582;-34.876;138.628;2024-02-04T08:05:46;99267;;;37.04;18.20
70198;BME280;57582;-34.876;138.628;2024-02-04T08:08:46;99265;;;36.77;18.61
70198;BME280;57582;-34.876;138.628;2024-02-04T08:11:49;99267;;;36.71;18.45
70198;BME280;57582;-34.876;138.628;2024-02-04T08:14:46;99275;;;36.58;19.22
70198;BME280;57582;-34.876;138.628;2024-02-04T08:17:46;99280;;;36.28;20.43
70198;BME280;57582;-34.876;138.628;2024-02-04T08:20:46;99281;;;36.12;21.61
70198;BME280;57582;-34.876;138.628;2024-02-04T08:23:48;99279;;;35.93;22.10
70198;BME280;57582;-34.876;138.628;2024-02-04T08:26:46;99286;;;35.80;22.50
70198;BME280;57582;-34.876;138.628;2024-02-04T08:29:46;99297;;;35.62;23.04
70198;BME280;57582;-34.876;138.628;2024-02-04T08:32:46;99305;;;35.37;23.46
70198;BME280;57582;-34.876;138.628;2024-02-04T08:35:48;99301;;;35.26;23.71
70198;BME280;57582;-34.876;138.628;2024-02-04T08:38:46;99305;;;35.22;23.72
70198;BME280;57582;-34.876;138.628;2024-02-04T08:41:46;99304;;;35.14;23.86
70198;BME280;57582;-34.876;138.628;2024-02-04T08:44:47;99315;;;35.07;24.07
70198;BME280;57582;-34.876;138.628;2024-02-04T08:47:47;99314;;;35.03;24.19
70198;BME280;57582;-34.876;138.628;2024-02-04T08:50:46;99318;;;35.00;24.30
70198;BME280;57582;-34.876;138.628;2024-02-04T08:53:46;99332;;;34.95;24.57
70198;BME280;57582;-34.876;138.628;2024-02-04T08:56:46;99340;;;34.88;24.74
70198;BME280;57582;-34.876;138.628;2024-02-04T08:59:48;99333;;;34.68;25.33
70198;BME280;57582;-34.876;138.628;2024-02-04T09:02:46;99333;;;34.56;25.79
70198;BME280;57582;-34.876;138.628;2024-02-04T09:05:46;99346;;;34.50;26.50
70198;BME280;57582;-34.876;138.628;2024-02-04T09:08:46;99350;;;34.32;27.32
70198;BME280;57582;-34.876;138.628;2024-02-04T09:11:47;99342;;;34.08;27.60
70198;BME280;57582;-34.876;138.628;2024-02-04T09:14:46;99356;;;33.92;27.99
70198;BME280;57582;-34.876;138.628;2024-02-04T09:17:46;99361;;;33.47;29.64
70198;BME280;57582;-34.876;138.628;2024-02-04T09:20:47;99355;;;33.14;31.06
70198;BME280;57582;-34.876;138.628;2024-02-04T09:23:47;99353;;;33.02;31.49
70198;BME280;57582;-34.876;138.628;2024-02-04T09:26:46;99360;;;32.94;31.38
70198;BME280;57582;-34.876;138.628;2024-02-04T09:29:46;99358;;;32.98;31.47
70198;BME280;57582;-34.876;138.628;2024-02-04T09:32:46;99361;;;33.01;31.65
70198;BME280;57582;-34.876;138.628;2024-02-04T09:35:48;99364;;;33.06;31.59
70198;BME280;57582;-34.876;138.628;2024-02-04T09:38:46;99369;;;33.09;31.65
70198;BME280;57582;-34.876;138.628;2024-02-04T09:41:46;99372;;;33.09;31.84
70198;BME280;57582;-34.876;138.628;2024-02-04T09:44:48;99387;;;33.09;31.90
70198;BME280;57582;-34.876;138.628;2024-02-04T09:47:48;99388;;;32.99;32.23
70198;BME280;57582;-34.876;138.628;2024-02-04T09:50:46;99396;;;32.79;33.13
70198;BME280;57582;-34.876;138.628;2024-02-04T09:53:47;99412;;;32.54;34.02
70198;BME280;57582;-34.876;138.628;2024-02-04T09:56:46;99413;;;32.27;34.58
70198;BME280;57582;-34.876;138.628;2024-02-04T09:59:49;99416;;;32.20;34.86
70198;BME280;57582;-34.876;138.628;2024-02-04T10:02:48;99417;;;32.12;34.86
70198;BME280;57582;-34.876;138.628;2024-02-04T10:05:46;99431;;;32.12;35.11
70198;BME280;57582;-34.876;138.628;2024-02-04T10:08:46;99427;;;31.93;35.41
70198;BME280;57582;-34.876;138.628;2024-02-04T10:11:49;99420;;;31.79;35.74
70198;BME280;57582;-34.876;138.628;2024-02-04T10:14:46;99419;;;31.77;35.67
70198;BME280;57582;-34.876;138.628;2024-02-04T10:17:46;99421;;;31.72;35.29
70198;BME280;57582;-34.876;138.628;2024-02-04T10:20:46;99437;;;31.71;34.56
70198;BME280;57582;-34.876;138.628;2024-02-04T10:23:48;99418;;;31.70;34.05
70198;BME280;57582;-34.876;138.628;2024-02-04T10:26:46;99416;;;31.77;33.66
70198;BME280;57582;-34.876;138.628;2024-02-04T10:29:46;99424;;;31.86;33.16
70198;BME280;57582;-34.876;138.628;2024-02-04T10:32:47;99412;;;31.99;32.85
70198;BME280;57582;-34.876;138.628;2024-02-04T10:35:50;99422;;;32.10;32.51
70198;BME280;57582;-34.876;138.628;2024-02-04T10:38:46;99435;;;32.20;32.54
70198;BME280;57582;-34.876;138.628;2024-02-04T10:41:50;99435;;;32.27;32.40
70198;BME280;57582;-34.876;138.628;2024-02-04T10:44:46;99438;;;32.37;32.25
70198;BME280;57582;-34.876;138.628;2024-02-04T10:47:55;99443;;;32.44;32.16
70198;BME280;57582;-34.876;138.628;2024-02-04T10:50:47;99430;;;32.48;31.78
70198;BME280;57582;-34.876;138.628;2024-02-04T10:53:46;99439;;;32.48;34.36
70198;BME280;57582;-34.876;138.628;2024-02-04T10:56:46;99454;;;32.46;35.97
70198;BME280;57582;-34.876;138.628;2024-02-04T10:59:51;99455;;;32.42;37.22
70198;BME280;57582;-34.876;138.628;2024-02-04T11:02:46;99458;;;32.32;37.94
70198;BME280;57582;-34.876;138.628;2024-02-04T11:05:46;99460;;;32.20;38.82
70198;BME280;57582;-34.876;138.628;2024-02-04T11:08:46;99465;;;32.12;39.11
70198;BME280;57582;-34.876;138.628;2024-02-04T11:11:47;99465;;;31.99;39.05
70198;BME280;57582;-34.876;138.628;2024-02-04T11:14:49;99475;;;31.82;39.31
70198;BME280;57582;-34.876;138.628;2024-02-04T11:23:59;99473;;;31.27;38.98
70198;BME280;57582;-34.876;138.628;2024-02-04T11:26:46;99486;;;31.10;38.95
70198;BME280;57582;-34.876;138.628;2024-02-04T11:29:47;99489;;;30.90;39.00
70198;BME280;57582;-34.876;138.628;2024-02-04T11:32:47;99505;;;30.86;39.06
70198;BME280;57582;-34.876;138.628;2024-02-04T11:36:04;99523;;;30.80;39.50
70198;BME280;57582;-34.876;138.628;2024-02-04T11:38:48;99519;;;30.16;39.91
70198;BME280;57582;-34.876;138.628;2024-02-04T11:41:47;99510;;;29.90;39.83
70198;BME280;57582;-34.876;138.628;2024-02-04T11:44:47;99523;;;29.74;40.51
70198;BME280;57582;-34.876;138.628;2024-02-04T11:47:47;99546;;;29.59;39.79
70198;BME280;57582;-34.876;138.628;2024-02-04T11:50:54;99545;;;29.47;39.06
70198;BME280;57582;-34.876;138.628;2024-02-04T11:53:47;99535;;;29.51;38.31
70198;BME280;57582;-34.876;138.628;2024-02-04T11:56:54;99545;;;29.70;37.57
70198;BME280;57582;-34.876;138.628;2024-02-04T11:59:50;99550;;;29.90;36.71
70198;BME280;57582;-34.876;138.628;2024-02-04T12:02:47;99542;;;30.01;36.18
70198;BME280;57582;-34.876;138.628;2024-02-04T12:05:47;99551;;;30.05;35.79
70198;BME280;57582;-34.876;138.628;2024-02-04T12:08:47;99562;;;30.15;35.52
70198;BME280;57582;-34.876;138.628;2024-02-04T12:11:47;99583;;;29.97;35.67
70198;BME280;57582;-34.876;138.628;2024-02-04T12:14:47;99587;;;29.14;35.78
70198;BME280;57582;-34.876;138.628;2024-02-04T12:17:47;99592;;;28.61;35.94
70198;BME280;57582;-34.876;138.628;2024-02-04T12:20:47;99601;;;28.38;35.60
70198;BME280;57582;-34.876;138.628;2024-02-04T12:23:49;99611;;;27.81;35.22
70198;BME280;57582;-34.876;138.628;2024-02-04T12:26:47;99608;;;27.48;35.28
70198;BME280;57582;-34.876;138.628;2024-02-04T12:29:50;99587;;;27.32;34.65
70198;BME280;57582;-34.876;138.628;2024-02-04T12:32:55;99595;;;27.05;34.63
70198;BME280;57582;-34.876;138.628;2024-02-04T12:35:50;99598;;;26.96;34.61
70198;BME280;57582;-34.876;138.628;2024-02-04T12:38:50;99602;;;26.72;35.00
70198;BME280;57582;-34.876;138.628;2024-02-04T12:41:50;99609;;;26.62;35.17
70198;BME280;57582;-34.876;138.628;2024-02-04T12:44:47;99611;;;26.57;34.99
70198;BME280;57582;-34.876;138.628;2024-02-04T12:47:50;99606;;;26.36;35.16
70198;BME280;57582;-34.876;138.628;2024-02-04T12:50:47;99596;;;26.43;34.85
70198;BME280;57582;-34.876;138.628;2024-02-04T12:53:47;99610;;;26.39;34.64
70198;BME280;57582;-34.876;138.628;2024-02-04T12:56:48;99623;;;26.13;34.16
70198;BME280;57582;-34.876;138.628;2024-02-04T12:59:48;99639;;;26.18;33.21
70198;BME280;57582;-34.876;138.628;2024-02-04T13:02:50;99636;;;25.88;33.18
70198;BME280;57582;-34.876;138.628;2024-02-04T13:05:47;99647;;;25.83;32.31
70198;BME280;57582;-34.876;138.628;2024-02-04T13:08:47;99665;;;25.71;32.85
70198;BME280;57582;-34.876;138.628;2024-02-04T13:11:47;99681;;;25.81;32.49
70198;BME280;57582;-34.876;138.628;2024-02-04T13:14:47;99683;;;25.66;32.46
70198;BME280;57582;-34.876;138.628;2024-02-04T13:17:47;99706;;;25.63;32.22
70198;BME280;57582;-34.876;138.628;2024-02-04T13:20:47;99701;;;25.50;32.88
70198;BME280;57582;-34.876;138.628;2024-02-04T13:23:50;99723;;;25.33;33.28
70198;BME280;57582;-34.876;138.628;2024-02-04T13:26:47;99748;;;25.26;34.22
70198;BME280;57582;-34.876;138.628;2024-02-04T13:29:47;99754;;;25.14;35.58
70198;BME280;57582;-34.876;138.628;2024-02-04T13:32:47;99777;;;25.08;36.65
70198;BME280;57582;-34.876;138.628;2024-02-04T13:35:47;99803;;;24.94;37.88
70198;BME280;57582;-34.876;138.628;2024-02-04T13:38:47;99803;;;24.84;39.01
70198;BME280;57582;-34.876;138.628;2024-02-04T13:41:47;99807;;;24.90;39.86
70198;BME280;57582;-34.876;138.628;2024-02-04T13:44:47;99844;;;24.89;40.96
70198;BME280;57582;-34.876;138.628;2024-02-04T13:47:47;99843;;;24.51;42.73
70198;BME280;57582;-34.876;138.628;2024-02-04T13:50:47;99836;;;24.50;43.55
70198;BME280;57582;-34.876;138.628;2024-02-04T13:53:47;99835;;;24.44;44.03
70198;BME280;57582;-34.876;138.628;2024-02-04T13:56:47;99840;;;24.59;44.53
70198;BME280;57582;-34.876;138.628;2024-02-04T13:59:48;99852;;;24.53;44.88
70198;BME280;57582;-34.876;138.628;2024-02-04T14:02:47;99847;;;24.45;45.95
70198;BME280;57582;-34.876;138.628;2024-02-04T14:05:47;99847;;;24.53;45.80
70198;BME280;57582;-34.876;138.628;2024-02-04T14:08:47;99862;;;24.73;45.82
70198;BME280;57582;-34.876;138.628;2024-02-04T14:11:49;99866;;;24.82;45.67
70198;BME280;57582;-34.876;138.628;2024-02-04T14:14:47;99842;;;25.01;45.04
70198;BME280;57582;-34.876;138.628;2024-02-04T14:17:47;99824;;;25.29;44.08
70198;BME280;57582;-34.876;138.628;2024-02-04T14:20:47;99832;;;25.45;43.63
70198;BME280;57582;-34.876;138.628;2024-02-04T14:23:48;99834;;;25.63;43.53
70198;BME280;57582;-34.876;138.628;2024-02-04T14:26:47;99838;;;25.80;42.81
70198;BME280;57582;-34.876;138.628;2024-02-04T14:29:47;99843;;;25.93;42.21
70198;BME280;57582;-34.876;138.628;2024-02-04T14:32:47;99861;;;26.02;42.02
70198;BME280;57582;-34.876;138.628;2024-02-04T14:35:47;99889;;;26.21;41.67
70198;BME280;57582;-34.876;138.628;2024-02-04T14:38:47;99893;;;26.33;41.29
70198;BME280;57582;-34.876;138.628;2024-02-04T14:41:47;99900;;;26.38;40.89
70198;BME280;57582;-34.876;138.628;2024-02-04T14:44:47;99895;;;26.42;40.45
70198;BME280;57582;-34.876;138.628;2024-02-04T14:47:47;99881;;;26.08;41.23
70198;BME280;57582;-34.876;138.628;2024-02-04T14:50:47;99877;;;25.85;41.83
70198;BME280;57582;-34.876;138.628;2024-02-04T14:53:47;99922;;;25.60;42.72
70198;BME280;57582;-34.876;138.628;2024-02-04T14:56:47;99904;;;25.42;43.75
70198;BME280;57582;-34.876;138.628;2024-02-04T14:59:47;99905;;;25.06;45.22
70198;BME280;57582;-34.876;138.628;2024-02-04T15:02:47;99908;;;24.96;45.47
70198;BME280;57582;-34.876;138.628;2024-02-04T15:05:47;99879;;;24.67;46.53
70198;BME280;57582;-34.876;138.628;2024-02-04T15:08:47;99894;;;24.59;46.93
70198;BME280;57582;-34.876;138.628;2024-02-04T15:11:47;99901;;;24.49;47.66
70198;BME280;57582;-34.876;138.628;2024-02-04T15:14:47;99898;;;24.41;48.20
70198;BME280;57582;-34.876;138.628;2024-02-04T15:17:47;99891;;;24.45;48.23
70198;BME280;57582;-34.876;138.628;2024-02-04T15:20:47;99893;;;24.54;48.01
70198;BME280;57582;-34.876;138.628;2024-02-04T15:23:49;99891;;;24.59;48.17
70198;BME280;57582;-34.876;138.628;2024-02-04T15:26:48;99868;;;24.68;47.91
70198;BME280;57582;-34.876;138.628;2024-02-04T15:29:47;99867;;;24.78;47.56
70198;BME280;57582;-34.876;138.628;2024-02-04T15:32:47;99872;;;24.81;47.33
70198;BME280;57582;-34.876;138.628;2024-02-04T15:35:49;99886;;;24.96;46.98
70198;BME280;57582;-34.876;138.628;2024-02-04T15:38:47;99918;;;24.99;47.06
70198;BME280;57582;-34.876;138.628;2024-02-04T15:41:47;99902;;;24.92;47.25
70198;BME280;57582;-34.876;138.628;2024-02-04T15:44:47;99880;;;24.91;47.33
70198;BME280;57582;-34.876;138.628;2024-02-04T15:47:49;99888;;;25.02;47.20
70198;BME280;57582;-34.876;138.628;2024-02-04T15:50:47;99892;;;25.00;47.23
70198;BME280;57582;-34.876;138.628;2024-02-04T15:53:47;99865;;;25.03;47.16
70198;BME280;57582;-34.876;138.628;2024-02-04T15:56:48;99871;;;25.15;46.96
70198;BME280;57582;-34.876;138.628;2024-02-04T15:59:51;99882;;;25.21;46.81
70198;BME280;57582;-34.876;138.628;2024-02-04T16:02:47;99870;;;25.15;46.91
70198;BME280;57582;-34.876;138.628;2024-02-04T16:05:47;99850;;;25.12;47.08
70198;BME280;57582;-34.876;138.628;2024-02-04T16:08:47;99863;;;25.18;46.96